In Rescue
 
Open Full Screen Window  High Contrast Mode
Wind Gusting 00 knots
09
May 13, 2021 10:47 AM CDT
Weather Information
Wind Direction
  230 °
Wind Speed
  09 kt (10 mph)
Wind Gust
  00 kt (0 mph)
Altimeter
30.36 in
Visibility
10 SM
Temperature
18° C
64° F
Dewpoint
-01° C
30° F
Humidity
28%
1hr Rain Fall
00.00 in.
24hr Rain Fall
00.00 in.
Sky Condition
Clear
VFR

METAR KFBL 131547Z AUTO 23009KT 10SM CLR 18/M01 A3036 RMK AO2

FAA Disclaimer: The data displayed is for advisory purposes only and is not to be used for flight planning or operations.